sensor_id;sensor_type;location;lat;lon;timestamp;P1;durP1;ratioP1;P2;durP2;ratioP2
35893;SDS011;21994;48.204;16.516;2022-07-10T00:00:38;2.15;;;1.50;;
35893;SDS011;21994;48.204;16.516;2022-07-10T00:03:04;1.52;;;1.25;;
35893;SDS011;21994;48.204;16.516;2022-07-10T00:05:31;2.00;;;1.38;;
35893;SDS011;21994;48.204;16.516;2022-07-10T00:07:59;2.00;;;1.27;;
35893;SDS011;21994;48.204;16.516;2022-07-10T00:10:26;2.05;;;1.27;;
35893;SDS011;21994;48.204;16.516;2022-07-10T00:12:53;2.40;;;1.42;;
35893;SDS011;21994;48.204;16.516;2022-07-10T00:15:20;1.85;;;1.38;;
35893;SDS011;21994;48.204;16.516;2022-07-10T00:17:46;2.55;;;1.30;;
35893;SDS011;21994;48.204;16.516;2022-07-10T00:20:12;1.95;;;1.20;;
35893;SDS011;21994;48.204;16.516;2022-07-10T00:22:39;2.33;;;1.30;;
35893;SDS011;21994;48.204;16.516;2022-07-10T00:25:06;1.63;;;1.10;;
35893;SDS011;21994;48.204;16.516;2022-07-10T00:27:36;3.87;;;1.20;;
35893;SDS011;21994;48.204;16.516;2022-07-10T00:30:02;1.83;;;1.23;;
35893;SDS011;21994;48.204;16.516;2022-07-10T00:32:29;1.95;;;1.33;;
35893;SDS011;21994;48.204;16.516;2022-07-10T00:34:55;3.20;;;1.55;;
35893;SDS011;21994;48.204;16.516;2022-07-10T00:37:21;1.77;;;1.13;;
35893;SDS011;21994;48.204;16.516;2022-07-10T00:39:47;1.88;;;1.40;;
35893;SDS011;21994;48.204;16.516;2022-07-10T00:42:14;1.73;;;1.10;;
35893;SDS011;21994;48.204;16.516;2022-07-10T00:44:41;4.07;;;1.70;;
35893;SDS011;21994;48.204;16.516;2022-07-10T00:47:08;3.05;;;1.50;;
35893;SDS011;21994;48.204;16.516;2022-07-10T00:49:37;2.72;;;1.70;;
35893;SDS011;21994;48.204;16.516;2022-07-10T00:52:07;1.52;;;1.08;;
35893;SDS011;21994;48.204;16.516;2022-07-10T00:54:37;3.08;;;1.80;;
35893;SDS011;21994;48.204;16.516;2022-07-10T00:57:08;2.63;;;1.83;;
35893;SDS011;21994;48.204;16.516;2022-07-10T00:59:35;2.28;;;1.52;;
35893;SDS011;21994;48.204;16.516;2022-07-10T01:02:03;3.17;;;1.60;;
35893;SDS011;21994;48.204;16.516;2022-07-10T01:04:30;3.28;;;1.85;;
35893;SDS011;21994;48.204;16.516;2022-07-10T01:06:57;2.65;;;1.67;;
35893;SDS011;21994;48.204;16.516;2022-07-10T01:09:23;5.45;;;2.22;;
35893;SDS011;21994;48.204;16.516;2022-07-10T01:11:50;2.45;;;1.88;;
35893;SDS011;21994;48.204;16.516;2022-07-10T01:14:16;3.65;;;2.10;;
35893;SDS011;21994;48.204;16.516;2022-07-10T01:16:42;3.13;;;1.63;;
35893;SDS011;21994;48.204;16.516;2022-07-10T01:19:08;4.05;;;1.88;;
35893;SDS011;21994;48.204;16.516;2022-07-10T01:21:34;2.30;;;1.80;;
35893;SDS011;21994;48.204;16.516;2022-07-10T01:24:06;3.20;;;1.50;;
35893;SDS011;21994;48.204;16.516;2022-07-10T01:26:33;2.45;;;1.90;;
35893;SDS011;21994;48.204;16.516;2022-07-10T01:29:04;3.17;;;2.45;;
35893;SDS011;21994;48.204;16.516;2022-07-10T01:31:31;2.85;;;1.73;;
35893;SDS011;21994;48.204;16.516;2022-07-10T01:34:02;3.65;;;1.98;;
35893;SDS011;21994;48.204;16.516;2022-07-10T01:36:31;4.65;;;1.85;;
35893;SDS011;21994;48.204;16.516;2022-07-10T01:38:58;4.53;;;2.20;;
35893;SDS011;21994;48.204;16.516;2022-07-10T01:41:25;3.70;;;2.05;;
35893;SDS011;21994;48.204;16.516;2022-07-10T01:43:51;4.85;;;2.75;;
35893;SDS011;21994;48.204;16.516;2022-07-10T01:46:18;3.63;;;1.92;;
35893;SDS011;21994;48.204;16.516;2022-07-10T01:48:45;3.63;;;2.15;;
35893;SDS011;21994;48.204;16.516;2022-07-10T01:51:11;3.75;;;2.15;;
35893;SDS011;21994;48.204;16.516;2022-07-10T01:53:37;3.90;;;1.92;;
35893;SDS011;21994;48.204;16.516;2022-07-10T01:56:05;4.13;;;2.10;;
35893;SDS011;21994;48.204;16.516;2022-07-10T01:58:34;6.55;;;4.00;;
35893;SDS011;21994;48.204;16.516;2022-07-10T02:01:00;3.85;;;2.10;;
35893;SDS011;21994;48.204;16.516;2022-07-10T02:03:27;4.72;;;2.55;;
35893;SDS011;21994;48.204;16.516;2022-07-10T02:06:12;4.15;;;2.60;;
35893;SDS011;21994;48.204;16.516;2022-07-10T02:08:39;6.93;;;2.00;;
35893;SDS011;21994;48.204;16.516;2022-07-10T02:11:05;4.53;;;2.70;;
35893;SDS011;21994;48.204;16.516;2022-07-10T02:13:32;4.65;;;2.65;;
35893;SDS011;21994;48.204;16.516;2022-07-10T02:15:58;4.18;;;2.15;;
35893;SDS011;21994;48.204;16.516;2022-07-10T02:18:24;3.47;;;2.20;;
35893;SDS011;21994;48.204;16.516;2022-07-10T02:20:51;3.53;;;2.10;;
35893;SDS011;21994;48.204;16.516;2022-07-10T02:23:17;2.88;;;1.95;;
35893;SDS011;21994;48.204;16.516;2022-07-10T02:25:44;3.95;;;2.40;;
35893;SDS011;21994;48.204;16.516;2022-07-10T02:28:10;2.97;;;2.00;;
35893;SDS011;21994;48.204;16.516;2022-07-10T02:30:36;7.25;;;2.33;;
35893;SDS011;21994;48.204;16.516;2022-07-10T02:33:02;5.57;;;1.73;;
35893;SDS011;21994;48.204;16.516;2022-07-10T02:35:28;3.30;;;1.80;;
35893;SDS011;21994;48.204;16.516;2022-07-10T02:37:54;2.80;;;1.98;;
35893;SDS011;21994;48.204;16.516;2022-07-10T02:40:20;3.15;;;2.10;;
35893;SDS011;21994;48.204;16.516;2022-07-10T02:42:46;3.95;;;1.75;;
35893;SDS011;21994;48.204;16.516;2022-07-10T02:45:12;3.20;;;1.70;;
35893;SDS011;21994;48.204;16.516;2022-07-10T02:47:37;2.97;;;2.05;;
35893;SDS011;21994;48.204;16.516;2022-07-10T02:50:03;5.97;;;2.30;;
35893;SDS011;21994;48.204;16.516;2022-07-10T02:52:30;2.65;;;1.73;;
35893;SDS011;21994;48.204;16.516;2022-07-10T02:54:57;2.78;;;1.73;;
35893;SDS011;21994;48.204;16.516;2022-07-10T02:57:23;2.38;;;1.45;;
35893;SDS011;21994;48.204;16.516;2022-07-10T02:59:49;4.50;;;2.10;;
35893;SDS011;21994;48.204;16.516;2022-07-10T03:02:16;3.08;;;2.15;;
35893;SDS011;21994;48.204;16.516;2022-07-10T03:04:42;1.95;;;1.67;;
35893;SDS011;21994;48.204;16.516;2022-07-10T03:07:08;4.63;;;1.90;;
35893;SDS011;21994;48.204;16.516;2022-07-10T03:09:34;3.42;;;2.50;;
35893;SDS011;21994;48.204;16.516;2022-07-10T03:12:00;4.57;;;1.98;;
35893;SDS011;21994;48.204;16.516;2022-07-10T03:14:26;3.10;;;1.83;;
35893;SDS011;21994;48.204;16.516;2022-07-10T03:16:52;3.47;;;1.77;;
35893;SDS011;21994;48.204;16.516;2022-07-10T03:19:18;3.63;;;1.88;;
35893;SDS011;21994;48.204;16.516;2022-07-10T03:21:44;3.22;;;2.00;;
35893;SDS011;21994;48.204;16.516;2022-07-10T03:24:11;4.78;;;1.70;;
35893;SDS011;21994;48.204;16.516;2022-07-10T03:26:37;3.47;;;1.50;;
35893;SDS011;21994;48.204;16.516;2022-07-10T03:29:03;3.55;;;2.03;;
35893;SDS011;21994;48.204;16.516;2022-07-10T03:31:29;3.55;;;1.75;;
35893;SDS011;21994;48.204;16.516;2022-07-10T03:33:55;4.15;;;1.80;;
35893;SDS011;21994;48.204;16.516;2022-07-10T03:36:20;3.63;;;1.67;;
35893;SDS011;21994;48.204;16.516;2022-07-10T03:38:46;2.85;;;2.00;;
35893;SDS011;21994;48.204;16.516;2022-07-10T03:41:13;3.45;;;2.22;;
35893;SDS011;21994;48.204;16.516;2022-07-10T03:43:39;3.13;;;2.10;;
35893;SDS011;21994;48.204;16.516;2022-07-10T03:46:05;3.55;;;1.60;;
35893;SDS011;21994;48.204;16.516;2022-07-10T03:48:31;2.53;;;1.55;;
35893;SDS011;21994;48.204;16.516;2022-07-10T03:50:58;3.78;;;1.70;;
35893;SDS011;21994;48.204;16.516;2022-07-10T03:53:24;3.60;;;1.75;;
35893;SDS011;21994;48.204;16.516;2022-07-10T03:55:50;3.63;;;1.80;;
35893;SDS011;21994;48.204;16.516;2022-07-10T03:58:16;2.80;;;1.90;;
35893;SDS011;21994;48.204;16.516;2022-07-10T04:00:42;3.55;;;1.90;;
35893;SDS011;21994;48.204;16.516;2022-07-10T04:03:08;5.13;;;1.85;;
35893;SDS011;21994;48.204;16.516;2022-07-10T04:05:35;2.85;;;1.58;;
35893;SDS011;21994;48.204;16.516;2022-07-10T04:08:01;2.72;;;1.90;;
35893;SDS011;21994;48.204;16.516;2022-07-10T04:10:29;2.45;;;1.73;;
35893;SDS011;21994;48.204;16.516;2022-07-10T04:12:59;4.07;;;1.90;;
35893;SDS011;21994;48.204;16.516;2022-07-10T04:15:25;3.88;;;1.98;;
35893;SDS011;21994;48.204;16.516;2022-07-10T04:17:51;4.35;;;1.80;;
35893;SDS011;21994;48.204;16.516;2022-07-10T04:20:18;2.63;;;1.85;;
35893;SDS011;21994;48.204;16.516;2022-07-10T04:22:45;2.63;;;1.80;;
35893;SDS011;21994;48.204;16.516;2022-07-10T04:25:11;3.03;;;1.77;;
35893;SDS011;21994;48.204;16.516;2022-07-10T04:27:38;3.58;;;2.05;;
35893;SDS011;21994;48.204;16.516;2022-07-10T04:30:05;3.35;;;1.75;;
35893;SDS011;21994;48.204;16.516;2022-07-10T04:32:31;2.67;;;1.92;;
35893;SDS011;21994;48.204;16.516;2022-07-10T04:34:58;6.85;;;1.73;;
35893;SDS011;21994;48.204;16.516;2022-07-10T04:37:25;3.38;;;2.17;;
35893;SDS011;21994;48.204;16.516;2022-07-10T04:39:53;2.20;;;1.73;;
35893;SDS011;21994;48.204;16.516;2022-07-10T04:42:19;2.88;;;2.00;;
35893;SDS011;21994;48.204;16.516;2022-07-10T04:44:44;4.00;;;2.17;;
35893;SDS011;21994;48.204;16.516;2022-07-10T04:47:10;2.20;;;1.70;;
35893;SDS011;21994;48.204;16.516;2022-07-10T04:49:37;3.47;;;1.70;;
35893;SDS011;21994;48.204;16.516;2022-07-10T04:52:03;3.20;;;1.80;;
35893;SDS011;21994;48.204;16.516;2022-07-10T04:54:29;3.65;;;1.85;;
35893;SDS011;21994;48.204;16.516;2022-07-10T04:56:55;3.05;;;1.92;;
35893;SDS011;21994;48.204;16.516;2022-07-10T04:59:21;4.20;;;1.80;;
35893;SDS011;21994;48.204;16.516;2022-07-10T05:01:47;2.95;;;1.80;;
35893;SDS011;21994;48.204;16.516;2022-07-10T05:04:13;4.35;;;1.80;;
35893;SDS011;21994;48.204;16.516;2022-07-10T05:06:39;3.00;;;1.80;;
35893;SDS011;21994;48.204;16.516;2022-07-10T05:09:05;6.45;;;2.03;;
35893;SDS011;21994;48.204;16.516;2022-07-10T05:11:31;2.10;;;1.35;;
35893;SDS011;21994;48.204;16.516;2022-07-10T05:13:57;3.05;;;1.85;;
35893;SDS011;21994;48.204;16.516;2022-07-10T05:16:23;2.90;;;1.83;;
35893;SDS011;21994;48.204;16.516;2022-07-10T05:18:49;2.63;;;1.77;;
35893;SDS011;21994;48.204;16.516;2022-07-10T05:21:15;3.13;;;2.08;;
35893;SDS011;21994;48.204;16.516;2022-07-10T05:23:41;2.90;;;1.75;;
35893;SDS011;21994;48.204;16.516;2022-07-10T05:26:07;3.53;;;1.90;;
35893;SDS011;21994;48.204;16.516;2022-07-10T05:28:33;2.42;;;1.98;;
35893;SDS011;21994;48.204;16.516;2022-07-10T05:30:59;3.35;;;2.10;;
35893;SDS011;21994;48.204;16.516;2022-07-10T05:33:25;3.25;;;1.88;;
35893;SDS011;21994;48.204;16.516;2022-07-10T05:35:54;3.83;;;2.33;;
35893;SDS011;21994;48.204;16.516;2022-07-10T05:38:21;2.95;;;1.98;;
35893;SDS011;21994;48.204;16.516;2022-07-10T05:40:47;3.72;;;1.90;;
35893;SDS011;21994;48.204;16.516;2022-07-10T05:43:14;2.92;;;1.75;;
35893;SDS011;21994;48.204;16.516;2022-07-10T05:45:39;4.20;;;2.05;;
35893;SDS011;21994;48.204;16.516;2022-07-10T05:48:05;4.18;;;2.13;;
35893;SDS011;21994;48.204;16.516;2022-07-10T05:50:31;3.90;;;2.35;;
35893;SDS011;21994;48.204;16.516;2022-07-10T05:52:57;3.63;;;2.10;;
35893;SDS011;21994;48.204;16.516;2022-07-10T05:55:23;3.58;;;2.03;;
35893;SDS011;21994;48.204;16.516;2022-07-10T05:57:49;3.85;;;2.33;;
35893;SDS011;21994;48.204;16.516;2022-07-10T06:00:15;4.07;;;2.42;;
35893;SDS011;21994;48.204;16.516;2022-07-10T06:02:41;3.63;;;2.45;;
35893;SDS011;21994;48.204;16.516;2022-07-10T06:05:07;3.53;;;2.08;;
35893;SDS011;21994;48.204;16.516;2022-07-10T06:07:34;5.28;;;2.58;;
35893;SDS011;21994;48.204;16.516;2022-07-10T06:10:01;4.47;;;2.53;;
35893;SDS011;21994;48.204;16.516;2022-07-10T06:12:29;4.25;;;2.38;;
35893;SDS011;21994;48.204;16.516;2022-07-10T06:14:55;5.25;;;2.30;;
35893;SDS011;21994;48.204;16.516;2022-07-10T06:17:21;3.00;;;2.33;;
35893;SDS011;21994;48.204;16.516;2022-07-10T06:19:47;3.25;;;1.77;;
35893;SDS011;21994;48.204;16.516;2022-07-10T06:22:13;4.50;;;2.10;;
35893;SDS011;21994;48.204;16.516;2022-07-10T06:24:58;5.80;;;2.40;;
35893;SDS011;21994;48.204;16.516;2022-07-10T06:27:31;3.55;;;2.17;;
35893;SDS011;21994;48.204;16.516;2022-07-10T06:29:58;2.85;;;2.03;;
35893;SDS011;21994;48.204;16.516;2022-07-10T06:32:25;3.45;;;2.13;;
35893;SDS011;21994;48.204;16.516;2022-07-10T06:34:52;5.07;;;2.33;;
35893;SDS011;21994;48.204;16.516;2022-07-10T06:37:19;2.78;;;1.83;;
35893;SDS011;21994;48.204;16.516;2022-07-10T06:39:46;3.80;;;2.33;;
35893;SDS011;21994;48.204;16.516;2022-07-10T06:42:15;4.63;;;1.83;;
35893;SDS011;21994;48.204;16.516;2022-07-10T06:44:42;4.28;;;2.20;;
35893;SDS011;21994;48.204;16.516;2022-07-10T06:47:10;3.47;;;2.15;;
35893;SDS011;21994;48.204;16.516;2022-07-10T06:49:56;3.40;;;2.03;;
35893;SDS011;21994;48.204;16.516;2022-07-10T06:52:22;5.40;;;2.50;;
35893;SDS011;21994;48.204;16.516;2022-07-10T06:54:48;4.97;;;2.20;;
35893;SDS011;21994;48.204;16.516;2022-07-10T06:57:14;6.18;;;2.50;;
35893;SDS011;21994;48.204;16.516;2022-07-10T06:59:42;4.35;;;1.92;;
35893;SDS011;21994;48.204;16.516;2022-07-10T07:02:08;6.15;;;2.35;;
35893;SDS011;21994;48.204;16.516;2022-07-10T07:04:34;3.97;;;2.28;;
35893;SDS011;21994;48.204;16.516;2022-07-10T07:07:01;3.83;;;1.63;;
35893;SDS011;21994;48.204;16.516;2022-07-10T07:09:28;4.75;;;2.05;;
35893;SDS011;21994;48.204;16.516;2022-07-10T07:11:54;5.40;;;2.30;;
35893;SDS011;21994;48.204;16.516;2022-07-10T07:14:19;4.65;;;2.38;;
35893;SDS011;21994;48.204;16.516;2022-07-10T07:16:45;4.20;;;2.28;;
35893;SDS011;21994;48.204;16.516;2022-07-10T07:19:22;2.95;;;2.17;;
35893;SDS011;21994;48.204;16.516;2022-07-10T07:22:05;3.80;;;2.20;;
35893;SDS011;21994;48.204;16.516;2022-07-10T07:24:49;3.00;;;1.80;;
35893;SDS011;21994;48.204;16.516;2022-07-10T07:27:15;2.65;;;1.83;;
35893;SDS011;21994;48.204;16.516;2022-07-10T07:29:41;2.60;;;1.90;;
35893;SDS011;21994;48.204;16.516;2022-07-10T07:32:07;4.10;;;2.10;;
35893;SDS011;21994;48.204;16.516;2022-07-10T07:34:33;4.45;;;2.20;;
35893;SDS011;21994;48.204;16.516;2022-07-10T07:36:59;3.55;;;1.98;;
35893;SDS011;21994;48.204;16.516;2022-07-10T07:39:25;2.78;;;1.90;;
35893;SDS011;21994;48.204;16.516;2022-07-10T07:41:50;3.38;;;2.25;;
35893;SDS011;21994;48.204;16.516;2022-07-10T07:44:16;2.88;;;1.80;;
35893;SDS011;21994;48.204;16.516;2022-07-10T07:46:43;3.42;;;2.15;;
35893;SDS011;21994;48.204;16.516;2022-07-10T07:49:09;2.58;;;2.13;;
35893;SDS011;21994;48.204;16.516;2022-07-10T07:51:35;4.20;;;1.70;;
35893;SDS011;21994;48.204;16.516;2022-07-10T07:54:01;5.50;;;1.95;;
35893;SDS011;21994;48.204;16.516;2022-07-10T07:56:27;3.17;;;1.92;;
35893;SDS011;21994;48.204;16.516;2022-07-10T07:58:53;3.05;;;1.80;;
35893;SDS011;21994;48.204;16.516;2022-07-10T08:01:19;3.65;;;2.00;;
35893;SDS011;21994;48.204;16.516;2022-07-10T08:03:45;4.30;;;1.92;;
35893;SDS011;21994;48.204;16.516;2022-07-10T08:06:11;3.85;;;2.10;;
35893;SDS011;21994;48.204;16.516;2022-07-10T08:08:37;2.92;;;1.88;;
35893;SDS011;21994;48.204;16.516;2022-07-10T08:11:03;4.20;;;1.90;;
35893;SDS011;21994;48.204;16.516;2022-07-10T08:13:29;3.88;;;1.92;;
35893;SDS011;21994;48.204;16.516;2022-07-10T08:15:55;5.05;;;2.10;;
35893;SDS011;21994;48.204;16.516;2022-07-10T08:18:20;4.85;;;2.17;;
35893;SDS011;21994;48.204;16.516;2022-07-10T08:20:47;2.35;;;1.45;;
35893;SDS011;21994;48.204;16.516;2022-07-10T08:23:12;3.22;;;1.50;;
35893;SDS011;21994;48.204;16.516;2022-07-10T08:25:38;4.13;;;1.50;;
35893;SDS011;21994;48.204;16.516;2022-07-10T08:28:04;2.55;;;1.13;;
35893;SDS011;21994;48.204;16.516;2022-07-10T08:30:31;3.17;;;1.48;;
35893;SDS011;21994;48.204;16.516;2022-07-10T08:32:57;1.75;;;1.10;;
35893;SDS011;21994;48.204;16.516;2022-07-10T08:35:23;1.73;;;1.02;;
35893;SDS011;21994;48.204;16.516;2022-07-10T08:37:49;1.52;;;1.35;;
35893;SDS011;21994;48.204;16.516;2022-07-10T08:40:15;3.42;;;1.25;;
35893;SDS011;21994;48.204;16.516;2022-07-10T08:42:43;1.98;;;1.33;;
35893;SDS011;21994;48.204;16.516;2022-07-10T08:45:11;4.50;;;1.52;;
35893;SDS011;21994;48.204;16.516;2022-07-10T08:47:38;2.20;;;1.50;;
35893;SDS011;21994;48.204;16.516;2022-07-10T08:55:37;4.57;;;1.37;;
35893;SDS011;21994;48.204;16.516;2022-07-10T08:58:04;1.65;;;1.33;;
35893;SDS011;21994;48.204;16.516;2022-07-10T09:00:31;2.75;;;1.15;;
35893;SDS011;21994;48.204;16.516;2022-07-10T09:02:57;2.70;;;1.40;;
35893;SDS011;21994;48.204;16.516;2022-07-10T09:05:23;3.38;;;1.30;;
35893;SDS011;21994;48.204;16.516;2022-07-10T09:07:51;3.25;;;1.13;;
35893;SDS011;21994;48.204;16.516;2022-07-10T09:10:19;1.77;;;0.98;;
35893;SDS011;21994;48.204;16.516;2022-07-10T09:15:27;2.42;;;1.15;;
35893;SDS011;21994;48.204;16.516;2022-07-10T09:18:04;2.08;;;0.95;;
35893;SDS011;21994;48.204;16.516;2022-07-10T09:20:32;1.88;;;0.90;;
35893;SDS011;21994;48.204;16.516;2022-07-10T09:25:47;3.90;;;1.50;;
35893;SDS011;21994;48.204;16.516;2022-07-10T09:28:24;2.63;;;1.35;;
35893;SDS011;21994;48.204;16.516;2022-07-10T09:30:50;3.55;;;1.15;;
35893;SDS011;21994;48.204;16.516;2022-07-10T09:43:55;6.55;;;1.65;;
35893;SDS011;21994;48.204;16.516;2022-07-10T09:46:27;1.52;;;1.10;;
35893;SDS011;21994;48.204;16.516;2022-07-10T09:49:12;2.28;;;1.50;;
35893;SDS011;21994;48.204;16.516;2022-07-10T09:51:40;2.25;;;1.65;;
35893;SDS011;21994;48.204;16.516;2022-07-10T09:54:10;2.50;;;1.33;;
35893;SDS011;21994;48.204;16.516;2022-07-10T09:56:41;2.20;;;1.38;;
35893;SDS011;21994;48.204;16.516;2022-07-10T09:59:09;2.22;;;1.25;;
35893;SDS011;21994;48.204;16.516;2022-07-10T10:01:42;2.90;;;1.40;;
35893;SDS011;21994;48.204;16.516;2022-07-10T10:04:14;2.63;;;1.52;;
35893;SDS011;21994;48.204;16.516;2022-07-10T10:06:45;3.08;;;1.58;;
35893;SDS011;21994;48.204;16.516;2022-07-10T10:09:28;4.45;;;1.77;;
35893;SDS011;21994;48.204;16.516;2022-07-10T10:12:02;3.17;;;1.73;;
35893;SDS011;21994;48.204;16.516;2022-07-10T10:14:33;4.80;;;1.60;;
35893;SDS011;21994;48.204;16.516;2022-07-10T10:17:00;3.83;;;1.55;;
35893;SDS011;21994;48.204;16.516;2022-07-10T10:19:26;3.85;;;1.52;;
35893;SDS011;21994;48.204;16.516;2022-07-10T10:22:15;1.70;;;1.42;;
35893;SDS011;21994;48.204;16.516;2022-07-10T10:24:44;2.25;;;1.27;;
35893;SDS011;21994;48.204;16.516;2022-07-10T10:27:11;2.92;;;1.48;;
35893;SDS011;21994;48.204;16.516;2022-07-10T10:29:38;2.72;;;1.67;;
35893;SDS011;21994;48.204;16.516;2022-07-10T10:32:06;6.85;;;1.60;;
35893;SDS011;21994;48.204;16.516;2022-07-10T10:34:38;2.38;;;1.10;;
35893;SDS011;21994;48.204;16.516;2022-07-10T10:39:52;2.33;;;1.25;;
35893;SDS011;21994;48.204;16.516;2022-07-10T10:42:33;2.85;;;1.20;;
35893;SDS011;21994;48.204;16.516;2022-07-10T10:48:13;4.03;;;1.35;;
35893;SDS011;21994;48.204;16.516;2022-07-10T10:50:48;4.75;;;1.65;;
35893;SDS011;21994;48.204;16.516;2022-07-10T10:53:24;2.60;;;1.52;;
35893;SDS011;21994;48.204;16.516;2022-07-10T10:58:36;3.72;;;1.40;;
35893;SDS011;21994;48.204;16.516;2022-07-10T11:01:04;3.70;;;1.58;;
35893;SDS011;21994;48.204;16.516;2022-07-10T11:06:50;2.67;;;1.27;;
35893;SDS011;21994;48.204;16.516;2022-07-10T11:12:06;1.30;;;0.85;;
35893;SDS011;21994;48.204;16.516;2022-07-10T11:17:12;2.85;;;1.30;;
35893;SDS011;21994;48.204;16.516;2022-07-10T11:19:39;1.88;;;1.00;;
35893;SDS011;21994;48.204;16.516;2022-07-10T11:25:32;1.10;;;0.90;;
35893;SDS011;21994;48.204;16.516;2022-07-10T11:28:41;2.53;;;1.00;;
35893;SDS011;21994;48.204;16.516;2022-07-10T11:31:18;1.58;;;0.75;;
35893;SDS011;21994;48.204;16.516;2022-07-10T11:33:49;5.20;;;0.83;;
35893;SDS011;21994;48.204;16.516;2022-07-10T11:36:18;1.00;;;0.70;;
35893;SDS011;21994;48.204;16.516;2022-07-10T11:38:59;4.82;;;0.90;;
35893;SDS011;21994;48.204;16.516;2022-07-10T11:41:30;1.00;;;0.80;;
35893;SDS011;21994;48.204;16.516;2022-07-10T11:46:31;1.05;;;0.60;;
35893;SDS011;21994;48.204;16.516;2022-07-10T11:49:03;2.90;;;1.20;;
35893;SDS011;21994;48.204;16.516;2022-07-10T11:51:32;0.82;;;0.70;;
35893;SDS011;21994;48.204;16.516;2022-07-10T11:54:02;1.83;;;0.95;;
35893;SDS011;21994;48.204;16.516;2022-07-10T11:56:33;3.60;;;1.00;;
35893;SDS011;21994;48.204;16.516;2022-07-10T11:59:05;4.18;;;1.13;;
35893;SDS011;21994;48.204;16.516;2022-07-10T12:01:41;2.13;;;0.60;;
35893;SDS011;21994;48.204;16.516;2022-07-10T12:04:12;2.20;;;0.90;;
35893;SDS011;21994;48.204;16.516;2022-07-10T12:06:41;2.35;;;0.68;;
35893;SDS011;21994;48.204;16.516;2022-07-10T12:09:10;1.33;;;0.80;;
35893;SDS011;21994;48.204;16.516;2022-07-10T12:11:39;1.98;;;0.88;;
35893;SDS011;21994;48.204;16.516;2022-07-10T12:14:14;1.55;;;0.90;;
35893;SDS011;21994;48.204;16.516;2022-07-10T12:16:45;1.55;;;0.70;;
35893;SDS011;21994;48.204;16.516;2022-07-10T12:19:13;0.93;;;0.68;;
35893;SDS011;21994;48.204;16.516;2022-07-10T12:21:41;1.10;;;0.70;;
35893;SDS011;21994;48.204;16.516;2022-07-10T12:24:10;1.77;;;0.65;;
35893;SDS011;21994;48.204;16.516;2022-07-10T12:26:39;1.52;;;0.77;;
35893;SDS011;21994;48.204;16.516;2022-07-10T12:31:55;1.23;;;0.75;;
35893;SDS011;21994;48.204;16.516;2022-07-10T12:34:37;2.63;;;0.80;;
35893;SDS011;21994;48.204;16.516;2022-07-10T12:37:09;0.82;;;0.45;;
35893;SDS011;21994;48.204;16.516;2022-07-10T12:39:37;2.53;;;0.40;;
35893;SDS011;21994;48.204;16.516;2022-07-10T12:42:11;1.05;;;0.63;;
35893;SDS011;21994;48.204;16.516;2022-07-10T12:44:42;1.80;;;0.80;;
35893;SDS011;21994;48.204;16.516;2022-07-10T12:47:13;1.00;;;0.45;;
35893;SDS011;21994;48.204;16.516;2022-07-10T12:52:24;0.73;;;0.40;;
35893;SDS011;21994;48.204;16.516;2022-07-10T12:55:08;0.57;;;0.40;;
35893;SDS011;21994;48.204;16.516;2022-07-10T13:00:28;0.85;;;0.77;;
35893;SDS011;21994;48.204;16.516;2022-07-10T13:08:12;1.83;;;0.68;;
35893;SDS011;21994;48.204;16.516;2022-07-10T13:10:52;0.95;;;0.80;;
35893;SDS011;21994;48.204;16.516;2022-07-10T13:13:23;1.05;;;0.60;;
35893;SDS011;21994;48.204;16.516;2022-07-10T13:15:49;2.00;;;0.60;;
35893;SDS011;21994;48.204;16.516;2022-07-10T13:18:19;2.55;;;0.68;;
35893;SDS011;21994;48.204;16.516;2022-07-10T13:20:47;1.55;;;0.50;;
35893;SDS011;21994;48.204;16.516;2022-07-10T13:23:14;4.50;;;1.15;;
35893;SDS011;21994;48.204;16.516;2022-07-10T13:25:44;2.58;;;0.70;;
35893;SDS011;21994;48.204;16.516;2022-07-10T13:28:10;1.38;;;0.70;;
35893;SDS011;21994;48.204;16.516;2022-07-10T13:30:37;1.08;;;0.50;;
35893;SDS011;21994;48.204;16.516;2022-07-10T13:33:03;1.48;;;0.60;;
35893;SDS011;21994;48.204;16.516;2022-07-10T13:35:30;5.65;;;0.70;;
35893;SDS011;21994;48.204;16.516;2022-07-10T13:37:58;0.82;;;0.47;;
35893;SDS011;21994;48.204;16.516;2022-07-10T13:40:26;1.05;;;0.60;;
35893;SDS011;21994;48.204;16.516;2022-07-10T13:42:52;1.05;;;0.68;;
35893;SDS011;21994;48.204;16.516;2022-07-10T13:45:19;3.00;;;0.70;;
35893;SDS011;21994;48.204;16.516;2022-07-10T13:47:46;1.15;;;0.60;;
35893;SDS011;21994;48.204;16.516;2022-07-10T13:50:12;1.00;;;0.88;;
35893;SDS011;21994;48.204;16.516;2022-07-10T13:52:38;3.50;;;0.77;;
35893;SDS011;21994;48.204;16.516;2022-07-10T13:55:04;1.25;;;0.68;;
35893;SDS011;21994;48.204;16.516;2022-07-10T13:57:31;1.48;;;0.90;;
35893;SDS011;21994;48.204;16.516;2022-07-10T14:00:00;1.08;;;0.70;;
35893;SDS011;21994;48.204;16.516;2022-07-10T14:02:26;0.70;;;0.60;;
35893;SDS011;21994;48.204;16.516;2022-07-10T14:04:52;2.13;;;0.50;;
35893;SDS011;21994;48.204;16.516;2022-07-10T14:07:18;4.28;;;0.75;;
35893;SDS011;21994;48.204;16.516;2022-07-10T14:09:44;0.95;;;0.40;;
35893;SDS011;21994;48.204;16.516;2022-07-10T14:12:10;0.73;;;0.45;;
35893;SDS011;21994;48.204;16.516;2022-07-10T14:14:36;1.85;;;0.60;;
35893;SDS011;21994;48.204;16.516;2022-07-10T14:17:02;1.13;;;0.80;;
35893;SDS011;21994;48.204;16.516;2022-07-10T14:19:28;2.72;;;0.63;;
35893;SDS011;21994;48.204;16.516;2022-07-10T14:21:54;2.20;;;0.52;;
35893;SDS011;21994;48.204;16.516;2022-07-10T14:24:20;1.70;;;0.60;;
35893;SDS011;21994;48.204;16.516;2022-07-10T14:26:45;1.92;;;0.52;;
35893;SDS011;21994;48.204;16.516;2022-07-10T14:29:12;1.42;;;0.70;;
35893;SDS011;21994;48.204;16.516;2022-07-10T14:31:38;1.02;;;0.57;;
35893;SDS011;21994;48.204;16.516;2022-07-10T14:34:04;0.75;;;0.50;;
35893;SDS011;21994;48.204;16.516;2022-07-10T14:36:31;2.05;;;1.17;;
35893;SDS011;21994;48.204;16.516;2022-07-10T14:38:57;1.80;;;0.88;;
35893;SDS011;21994;48.204;16.516;2022-07-10T14:41:23;1.45;;;0.82;;
35893;SDS011;21994;48.204;16.516;2022-07-10T14:43:53;3.13;;;0.70;;
35893;SDS011;21994;48.204;16.516;2022-07-10T14:46:19;1.17;;;0.80;;
35893;SDS011;21994;48.204;16.516;2022-07-10T14:48:45;3.08;;;0.70;;
35893;SDS011;21994;48.204;16.516;2022-07-10T14:51:11;2.28;;;0.70;;
35893;SDS011;21994;48.204;16.516;2022-07-10T14:53:37;1.70;;;0.93;;
35893;SDS011;21994;48.204;16.516;2022-07-10T14:56:06;1.20;;;0.80;;
35893;SDS011;21994;48.204;16.516;2022-07-10T14:58:33;0.82;;;0.60;;
35893;SDS011;21994;48.204;16.516;2022-07-10T15:00:59;1.20;;;0.70;;
35893;SDS011;21994;48.204;16.516;2022-07-10T15:03:25;1.85;;;0.80;;
35893;SDS011;21994;48.204;16.516;2022-07-10T15:05:52;1.90;;;0.80;;
35893;SDS011;21994;48.204;16.516;2022-07-10T15:08:21;2.03;;;0.70;;
35893;SDS011;21994;48.204;16.516;2022-07-10T15:10:49;2.15;;;1.08;;
35893;SDS011;21994;48.204;16.516;2022-07-10T15:13:15;1.27;;;1.00;;
35893;SDS011;21994;48.204;16.516;2022-07-10T15:15:41;1.33;;;0.70;;
35893;SDS011;21994;48.204;16.516;2022-07-10T15:18:08;1.08;;;0.63;;
35893;SDS011;21994;48.204;16.516;2022-07-10T15:20:34;1.08;;;0.80;;
35893;SDS011;21994;48.204;16.516;2022-07-10T15:23:02;0.98;;;0.70;;
35893;SDS011;21994;48.204;16.516;2022-07-10T15:25:29;2.78;;;0.73;;
35893;SDS011;21994;48.204;16.516;2022-07-10T15:27:55;2.15;;;0.93;;
35893;SDS011;21994;48.204;16.516;2022-07-10T15:30:21;3.47;;;0.60;;
35893;SDS011;21994;48.204;16.516;2022-07-10T15:32:47;0.88;;;0.70;;
35893;SDS011;21994;48.204;16.516;2022-07-10T15:35:13;2.65;;;0.70;;